KDUG/DUG METAR and TAF weather

Enter ICAO airport designator
Station Type Date Time Source
KDUG METAR 2020/04/08 19:56 UTC NOAA

KDUG 081956Z AUTO 19018G26KT 10SM SCT085 24/02 A3007 RMK AO2 PK WND 19027/1925 SLP133 T02390022


Station Type Date Time Source
KDUG Decoded METAR 2020/04/08 19:56 UTC NOAA

BISBEE DOUGLAS INTERNATIONAL AIRPORT , AZ, United States (KDUG) 31-28N 109-36W
Apr 08, 2020 - 03:56 PM EDT / 2020.04.08 1956 UTC
Wind: from the S (190 degrees) at 21 MPH (18 KT) gusting to 30 MPH (26 KT):0
Visibility: 10 mile(s):0
Sky conditions: partly cloudy
Temperature: 75.0 F (23.9 C)
Dew Point: 36.0 F (2.2 C)
Relative Humidity: 24%
Pressure (altimeter): 30.07 in. Hg (1018 hPa)
ob: KDUG 081956Z AUTO 19018G26KT 10SM SCT085 24/02 A3007 RMK AO2 PK WND 19027/1925 SLP133 T02390022
cycle: 20

Station Type Date Time Source
KDUG TAF 2020/04/08 18:22 UTC NOAA

TAF KDUG 081720Z 0818/0918 19016G25KT P6SM SCT080 SCT250
FM082000 21022G31KT P6SM SCT080 BKN250
FM090300 25011KT P6SM FEW080 BKN250
FM090900 30007KT P6SM FEW080 SCT250

Example: see airport list